Timeline UpdatesTrip UpdatesNews PostsPvt Posts♥♥Travel TipsAdmin PostsConv PostsFollowed PostsChat RequestsBlog PostsPNR Posts

Disclaimer
Search
 
 
Fri Nov 21, 2014 07:40:17 ISTHomeTrainsΣChainsAtlasPNRForumGalleryNewsFAQTripsMembersLoginFeedback
No Recent News for this Train
Other Trains in the News **new
Latest...
..
Thu Sep 27, 2012 (12:15AM)
⇐ Return Journey: Train# 51426

51425/ParliVaijnath-Miraj Passenger (UnReserved)

Time-Table HAS CHANGED.
Sep 03 2014 (3:22PM)
Change Departure Station:
Change Arrival Station:
Post a Train Travel TipPost a Train Travel Tip **new
Post a Comment/Question/Picture/VideoPost a Comment/Question/Picture/Video
Inaugural Run
Sun Feb 20, 2011
Pantry/Catering
✕ NO Pantry Car
✕ NO Catering
Loco/Rake Reversals
LTRR/Latur Road Junction (3);
RSA - Rake Sharing
51419 (MRJ-UBL Passenger).
Rake/Coach Composition
SLR-2, UR-6,
Loco
PUNE WDM 2/3
News    PNR    Forum    Time-Table    Availability    Fare Chart    Map    Arr/Dep History    Trips    Gallery    ΣChains    X/O    Timeline    
Travel Time: 1h 46m    -2 halts    Distance: 82 km    Avg Speed: 46 km/hr
Type: Passenger
Zone: CR/Central
Departs @ 07:25 (Avg 30m late)
Platform# ???
SMTWTFS
Parli Vaijnath/PRLI 
Arrives @ 09:11
Platform# ???
SMTWTFS
Bhatangli/BANL 

-2 halts. 8 intermediate Stations between Parli Vaijnath and Bhatangli

Hide intermediate Stations  Show Old Time-Table

#TrkCodeStation NameX/OArrivesAvgDepartsAvgHaltPFDay#KmSpeedElevZoneAddress
1|--|PRLIParli Vaijnath (3)  -07:25+30--10.099462mSCRParli-Vaijnath, Maharashtra
2|--|GTUGhat Nandur (1)  07:39+5407:40+541m1123.226634mSCRGhat Nadur, Maharashtra
3|--|MRTYMurti (1) new halt!!  07:50-07:51-1m1127.6-624mSCRState Highway 169, Maharashtra
4|--|PNFPangaon (1)  07:54+4707:55+471m1135.748637mSCRPangaon, Maharashtra
5|--|KRPRKarepur (1)  08:04-08:05-1m1143.0129620mSCRState Highway 168, Maharashtra
6|--|JOAJanwal (1)  08:09+3108:10+301m1151.6104645mSCRLatur, Maharashtra
7|--|WDLNWadwal Nagnath (1)  08:14-08:15-1m1158.514638mSCRWadwal Nagnath, Maharashtra
8|--|LTRRLatur Road Junction (3)08:35+1:2208:50+1:1215m1163.156648mSCRLatur Road ph.no 02381 258044, Maharashtra
8.1|--|GANIGharni  09:04-09:04-  176.5 56623mCRMSH3, Maharashtra
8.2|--|BANLBhatangli  09:11-09:11-  182.4 56591mCRMSH3, Maharashtra
9|--|LURLatur (2)  09:25+5709:30+1:005m1195.838622mCRLatur, Maharashtra
10|--|HGLHarangul  09:44-09:45-1m--1104.760644mCRState Highway 77, Maharashtra
11|--|OSAAusa Road  09:55+1:1409:56+1:231m--1114.766659mCRState Highway 77, Maharashtra
11.1|--|NEINeoli  10:06-10:06-  1125.6 66686mCRState Highway 77, Maharashtra
12|--|MRXMurud  10:12-10:13-1m--1132.250700mCRLatur, Maharashtra
13|--|PCPPalsap  10:21-10:22-1m--1138.840668mCRState Highway 77, Maharashtra
14|--|TERThair  10:29-10:30-1m--1143.520661mCRState Highway 77, Maharashtra
15|--|DKYDhokiX  10:45+1:0810:47+1:082m--1148.537667mCRDhoki Town, Maharashtra
16|--|KMRDKalamb Road  10:57-10:58-1m--1154.657674mCRTadwale, Maharashtra
17|--|YSIYedshi  11:09+1:0711:10+1:081m--1165.127691mCRNational Highway 211, Maharashtra
18|--|UMDOsmanabad (2)  11:32+5511:35+583m11175.159679mCROsmanabad, Maharashtra
19|--|PJRPangri  11:54+1:0311:55+1:061m--1193.758554mCRState Highway 77, Maharashtra
19.1|--|KCBKuslamb  12:00-12:00-  1198.7 58534mCRState Highway 77, Maharashtra
20|--|BTWBarsi Town (1)  12:13+1:0012:15+1:002m11211.158528mCRBarshi, Maharashtra
20.1|--|UPIUplai  12:27-12:27-  1222.6 58501mCRState Highway 77, Maharashtra
21|--|SEIShendri  12:33+1:0712:35+1:112m--1228.448499mCRState Highway 77, Maharashtra
21.1|--|MGOMahisgaon  12:49-12:49-  1239.4 48508mCRState Highway 77, Maharashtra
21.2|--|CNHLChink Hill  12:54-12:54-  1243.5 48518mCRState Highway 77, Maharashtra
22|--|KWVKurduvadi Junction (4)X  13:00+1:1114:00+4260m41248.458516mCRKurduvadi Dist-Solapur, Maharashtra
23|--|LAULLaul  14:09-14:10-1m11257.157530mCRState Highway 161, Maharashtra
23.1|--|PSSPadsali  14:14-14:14-  1260.8 57552mCRLaul, Maharashtra
24|--|MLBModnimb  14:24+3914:25+401m11270.557510mCRShetfal, Maharashtra
25|--|AHIAshti  14:34-14:35-1m--1279.053489mCRState Highway 161, Maharashtra
25.1|--|BBVBabhulgaon  14:43-14:43-  1285.8 53479mCRState Highway 161, Maharashtra
26|--|PVRPandharpur (3)  15:00+2815:05+285m11301.143469mCRPandharpur Ph:02186-223227, Maharashtra
27|--|BHLIBohali  15:19-15:20-1m--1311.164499mCRState Highway 161, Maharashtra
28|--|BMNIBamani  15:29-15:30-1m11320.775485mCRState Highway 161, Maharashtra
29|--|SGLASangola (2)X  15:38+3615:40+402m--1330.783505mCRSangole, Maharashtra
30|--|WSDWasud  15:47-15:48-1m--1340.437523mCRsolapur, Maharashtra
31|--|JVAJavale  15:57-15:58-1m--1346.070538mCRState Highway 71, Maharashtra
32|--|MSDGMasoba Dongargaon (1)  16:02-16:03-1m--1350.773548mCRJath, Maharashtra
33|--|JTRDJath Road  16:09+3116:10+321m--1358.070567mCRState Highway 71, Maharashtra
34|--|GLVGulvanchi  16:19-16:20-1m--1368.551623mCRJath Rd, Maharashtra
35|--|DLGNDhalgaon  16:29+3116:30+321m--1376.055669mCRJath Rd, Maharashtra
36|--|LNPLangarpeth  16:35-16:36-1m--1380.653658mCRJath Rd, Maharashtra
37|--|KVKKavathe Mahankal  16:49+3316:50+341m--1392.140637mCRKavthe Mahankal, Maharashtra
38|--|AGDLAgran Dhulgaon  16:55-16:56-1m--1395.555611mCRJath Rd, Maharashtra
39|--|SGRESulgare  17:05+3417:06+351m--1403.781627mCRJath Rd, Maharashtra
40|--|BLNKBelanki  17:11-17:12-1m--1410.531625mCRJath Rd, Maharashtra
41|--|ARAGArag  17:22+3817:23+581m--1415.633650mCRJath Rd, Maharashtra
41.1|--|BDKBedag  17:29-17:29-  1418.7 33649mCRErandoli, Maharashtra
42|--|BLWDBolwad  17:34-17:35-1m--1421.622646mCRBolwad, Maharashtra
43|--|MRJMiraj Junction (6)  18:20+25-51437.9-554mCRMiraj 416410, Maharashtra
Scroll to Top
Scroll to Bottom